Time;durP1;ratioP1;P1;durP2;ratioP2;P2;SDS_P1;SDS_P2;PMS_P1;PMS_P2;Temp;Humidity;BMP_temperature;BMP_pressure;BME280_temperature;BME280_humidity;BME280_pressure;Samples;Min_cycle;Max_cycle;Signal;HPM_P1;HPM_P2
2022/10/20 00:02:05;;;;;;;13.83;6.62;;;;;;;2.79;70.79;102145.30;1631654;84;20989;-77
2022/10/20 00:04:50;;;;;;;8.40;6.08;;;;;;;2.80;70.89;102141.94;1631520;87;21041;-77
2022/10/20 00:07:35;;;;;;;17.40;6.77;;;;;;;2.79;70.82;102144.43;1633102;85;21311;-77
2022/10/20 00:10:21;;;;;;;11.55;7.10;;;;;;;2.79;70.86;102140.59;1632608;87;21060;-77
2022/10/20 00:13:07;;;;;;;13.75;5.80;;;;;;;2.80;70.87;102139.38;1630639;87;21053;-77
2022/10/20 00:15:54;;;;;;;11.65;7.10;;;;;;;2.75;70.76;102140.02;1631129;87;21589;-77
2022/10/20 00:18:40;;;;;;;8.53;6.12;;;;;;;2.73;70.80;102140.35;1628523;87;21101;-77
2022/10/20 00:21:28;;;;;;;9.05;6.10;;;;;;;2.70;70.77;102140.23;1636175;85;21875;-77
2022/10/20 00:24:12;;;;;;;12.43;6.55;;;;;;;2.67;70.80;102146.08;1641473;84;21018;-77
2022/10/20 00:26:57;;;;;;;15.68;6.85;;;;;;;2.62;70.76;102130.98;1633338;87;20958;-77
2022/10/20 00:29:42;;;;;;;9.93;6.47;;;;;;;2.57;70.72;102132.10;1636744;85;20978;-77
2022/10/20 00:32:29;;;;;;;14.23;6.47;;;;;;;2.50;70.76;102128.83;1645207;85;20941;-77
2022/10/20 00:35:14;;;;;;;13.85;6.58;;;;;;;2.48;70.84;102131.72;1647239;85;21362;-77
2022/10/20 00:37:58;;;;;;;10.35;6.08;;;;;;;2.42;70.89;102127.64;1650327;86;20969;-77
2022/10/20 00:40:43;;;;;;;10.23;6.37;;;;;;;2.43;70.98;102120.45;1649328;86;21034;-77
2022/10/20 00:43:45;;;;;;;14.83;6.30;;;;;;;2.42;70.83;102123.81;1652723;86;20969;-77
2022/10/20 00:46:42;;;;;;;10.28;5.92;;;;;;;2.37;70.86;102124.02;1647725;86;20986;-77
2022/10/20 00:49:27;;;;;;;11.20;5.65;;;;;;;2.37;70.94;102127.85;1658349;84;21499;-77
2022/10/20 00:52:12;;;;;;;10.00;6.15;;;;;;;2.39;71.00;102122.81;1560856;83;5000857;-77
2022/10/20 00:54:58;;;;;;;12.30;5.53;;;;;;;2.40;70.87;102116.50;1661502;86;21424;-77
2022/10/20 00:57:48;;;;;;;10.82;6.25;;;;;;;2.37;70.87;102114.22;1661564;86;20994;-77
2022/10/20 01:00:33;;;;;;;10.43;5.53;;;;;;;2.33;70.92;102117.92;1662346;85;21536;-77
2022/10/20 01:03:27;;;;;;;10.37;6.03;;;;;;;2.31;70.87;102122.09;1660296;86;20925;-77
2022/10/20 01:06:14;;;;;;;11.70;6.30;;;;;;;2.31;70.88;102127.19;1662978;86;20969;-77
2022/10/20 01:08:59;;;;;;;11.65;6.35;;;;;;;2.28;70.88;102128.34;1661842;86;20953;-77
2022/10/20 01:12:02;;;;;;;12.70;6.40;;;;;;;2.27;70.85;102123.17;1662193;86;20947;-77
2022/10/20 01:14:55;;;;;;;11.40;5.78;;;;;;;2.26;70.90;102123.98;1422113;84;9999761;-77
2022/10/20 01:18:06;;;;;;;11.55;5.65;;;;;;;2.22;70.80;102120.83;1648132;85;20970;-77
2022/10/20 01:21:21;;;;;;;10.32;6.05;;;;;;;2.13;70.82;102109.83;1594893;87;21001;-77
2022/10/20 01:24:41;;;;;;;12.75;6.75;;;;;;;2.08;70.84;102102.38;1604625;88;20992;-77
2022/10/20 01:27:37;;;;;;;8.65;6.12;;;;;;;2.03;70.96;102100.08;1606154;88;20988;-76
2022/10/20 01:30:23;;;;;;;13.98;6.22;;;;;;;2.07;71.06;102103.63;1603542;88;21084;-76
2022/10/20 01:33:42;;;;;;;11.45;5.67;;;;;;;2.10;71.06;102102.45;1591852;88;21065;-76
2022/10/20 01:36:31;;;;;;;15.75;6.45;;;;;;;2.11;71.01;102096.14;1582269;89;20977;-76
2022/10/20 01:39:24;;;;;;;8.03;5.90;;;;;;;2.11;70.96;102094.86;1583706;87;21550;-77
2022/10/20 01:42:14;;;;;;;11.88;6.03;;;;;;;2.09;70.99;102093.05;1584882;88;21304;-77
2022/10/20 01:45:02;;;;;;;12.65;6.45;;;;;;;2.05;70.88;102093.36;1583646;89;21012;-77
2022/10/20 01:47:51;;;;;;;9.35;6.10;;;;;;;1.97;70.89;102091.76;1579250;88;21172;-77
2022/10/20 01:50:38;;;;;;;11.60;6.28;;;;;;;1.91;70.93;102087.67;1581168;88;21611;-77
2022/10/20 01:53:23;;;;;;;10.30;6.00;;;;;;;1.88;71.04;102085.39;1581601;89;21714;-77
2022/10/20 01:56:13;;;;;;;14.87;5.75;;;;;;;1.88;71.01;102090.09;1597946;88;21134;-77
2022/10/20 01:59:21;;;;;;;13.35;6.30;;;;;;;1.90;71.13;102084.65;1635904;86;21134;-77
2022/10/20 02:02:51;;;;;;;9.80;5.90;;;;;;;1.94;71.01;102084.37;1516675;93;21136;-77
2022/10/20 02:06:18;;;;;;;9.55;5.70;;;;;;;1.94;71.04;102084.37;1617353;86;21067;-77
2022/10/20 02:09:07;;;;;;;15.68;6.00;;;;;;;1.90;70.91;102085.92;1618100;88;21037;-77
2022/10/20 02:12:06;;;;;;;10.80;5.40;;;;;;;1.85;70.93;102080.16;1596011;88;20955;-77
2022/10/20 02:14:52;;;;;;;10.38;6.00;;;;;;;1.81;70.94;102082.11;1597293;87;21056;-77
2022/10/20 02:17:40;;;;;;;11.60;5.97;;;;;;;1.78;70.93;102067.95;1594770;89;20991;-77
2022/10/20 02:20:27;;;;;;;12.65;6.30;;;;;;;1.74;70.96;102076.27;1593673;88;20971;-77
2022/10/20 02:23:11;;;;;;;9.78;5.47;;;;;;;1.74;71.01;102069.50;1592800;87;21414;-77
2022/10/20 02:25:58;;;;;;;10.90;5.70;;;;;;;1.72;70.96;102076.20;1595758;87;21084;-77
2022/10/20 02:28:51;;;;;;;15.25;5.92;;;;;;;1.74;71.10;102077.55;1619597;87;20980;-77
2022/10/20 02:31:36;;;;;;;12.10;6.62;;;;;;;1.74;71.00;102078.42;1620542;87;20993;-77
2022/10/20 02:34:26;;;;;;;15.23;6.33;;;;;;;1.73;70.93;102061.78;1620082;86;21024;-77
2022/10/20 02:37:11;;;;;;;11.63;6.70;;;;;;;1.65;70.90;102049.57;1612558;87;21053;-77
2022/10/20 02:39:56;;;;;;;11.35;6.70;;;;;;;1.58;70.90;102050.52;1614063;88;20949;-77
2022/10/20 02:42:42;;;;;;;11.40;7.10;;;;;;;1.53;70.95;102055.84;1624549;85;21408;-77
2022/10/20 02:45:27;;;;;;;12.10;6.72;;;;;;;1.52;71.10;102052.83;1645349;85;20973;-77
2022/10/20 02:48:12;;;;;;;11.35;7.80;;;;;;;1.51;71.02;102056.18;1631448;87;21033;-77
2022/10/20 02:50:57;;;;;;;10.78;6.85;;;;;;;1.49;71.08;102056.52;1632379;85;20943;-77
2022/10/20 02:53:42;;;;;;;14.55;8.28;;;;;;;1.53;71.18;102057.12;1631230;86;20915;-77
2022/10/20 02:56:27;;;;;;;11.27;7.37;;;;;;;1.52;71.07;102070.27;1633700;86;20962;-77
2022/10/20 02:59:15;;;;;;;15.03;7.95;;;;;;;1.52;71.12;102070.67;1629312;87;20951;-77
2022/10/20 03:02:00;;;;;;;18.15;9.78;;;;;;;1.55;71.15;102082.27;1631622;86;20978;-77
2022/10/20 03:04:45;;;;;;;19.95;9.30;;;;;;;1.53;71.08;102080.94;1631295;87;21018;-77
2022/10/20 03:07:30;;;;;;;13.03;7.97;;;;;;;1.49;71.04;102085.83;1658070;85;20982;-77
2022/10/20 03:10:16;;;;;;;11.65;8.05;;;;;;;1.49;71.12;102090.92;1660260;85;21938;-77
2022/10/20 03:13:00;;;;;;;17.23;7.83;;;;;;;1.49;71.08;102088.38;1660999;85;20945;-77
2022/10/20 03:15:45;;;;;;;15.95;8.55;;;;;;;1.49;71.10;102098.17;1633322;87;20951;-77
2022/10/20 03:18:31;;;;;;;16.42;9.10;;;;;;;1.47;71.12;102102.73;1646167;85;21475;-77
2022/10/20 03:21:15;;;;;;;12.80;7.22;;;;;;;1.47;71.13;102095.08;1633854;87;21006;-77
2022/10/20 03:24:00;;;;;;;13.60;7.97;;;;;;;1.47;71.11;102101.05;1659791;85;21450;-77
2022/10/20 03:26:45;;;;;;;12.93;7.15;;;;;;;1.46;71.07;102102.25;1660696;85;20985;-77
2022/10/20 03:29:30;;;;;;;11.95;6.97;;;;;;;1.41;71.05;102097.35;1640261;85;21395;-77
2022/10/20 03:32:16;;;;;;;8.80;6.20;;;;;;;1.40;71.04;102100.70;1626035;85;330799;-77
2022/10/20 03:35:01;;;;;;;9.38;6.75;;;;;;;1.38;71.00;102103.19;1637072;87;20937;-77
2022/10/20 03:37:46;;;;;;;15.32;6.70;;;;;;;1.37;71.05;102104.39;1636672;87;21471;-77
2022/10/20 03:40:31;;;;;;;11.00;7.03;;;;;;;1.33;71.07;102106.80;1638805;87;21421;-77
2022/10/20 03:43:16;;;;;;;15.05;8.70;;;;;;;1.31;71.03;102108.41;1637919;87;20969;-77
2022/10/20 03:46:04;;;;;;;12.18;7.47;;;;;;;1.28;71.10;102110.81;1637521;87;21268;-77
2022/10/20 03:48:49;;;;;;;12.40;7.65;;;;;;;1.27;71.13;102112.02;1635871;86;21451;-77
2022/10/20 03:51:34;;;;;;;11.80;7.53;;;;;;;1.25;71.17;102104.70;1631436;87;21119;-77
2022/10/20 03:54:19;;;;;;;14.75;7.37;;;;;;;1.26;71.16;102102.23;1632637;87;21554;-77
2022/10/20 03:57:04;;;;;;;14.53;7.37;;;;;;;1.23;71.18;102102.09;1522326;86;10000556;-77
2022/10/20 03:59:50;;;;;;;14.30;7.97;;;;;;;1.23;71.22;102098.27;1600938;88;21571;-77
2022/10/20 04:02:40;;;;;;;11.48;7.50;;;;;;;1.21;71.15;102097.72;1603490;88;21079;-77
2022/10/20 04:05:25;;;;;;;9.30;6.72;;;;;;;1.20;71.17;102099.40;1624385;87;21176;-77
2022/10/20 04:08:10;;;;;;;9.15;6.40;;;;;;;1.18;71.11;102095.91;1624303;87;21092;-76
2022/10/20 04:10:57;;;;;;;12.13;6.85;;;;;;;1.11;71.01;102092.61;1622426;87;21516;-76
2022/10/20 04:13:43;;;;;;;12.53;6.85;;;;;;;1.08;71.09;102095.02;1623975;87;21089;-77
2022/10/20 04:16:28;;;;;;;11.38;7.33;;;;;;;1.08;71.21;102097.56;1624066;86;21088;-77
2022/10/20 04:19:14;;;;;;;14.07;6.50;;;;;;;1.08;71.18;102091.19;1623032;87;21646;-77
2022/10/20 04:21:58;;;;;;;11.38;6.95;;;;;;;1.10;71.21;102088.31;1624320;87;21085;-77
2022/10/20 04:24:44;;;;;;;9.68;6.50;;;;;;;1.09;71.19;102091.66;1625254;86;21137;-79
2022/10/20 04:27:28;;;;;;;11.80;6.80;;;;;;;1.09;71.19;102090.39;1600960;87;21132;-77
2022/10/20 04:30:13;;;;;;;13.15;6.70;;;;;;;1.09;71.17;102083.15;1626265;87;21180;-76
2022/10/20 04:32:59;;;;;;;9.25;6.72;;;;;;;1.10;71.21;102084.89;1600026;88;21061;-76
2022/10/20 04:35:44;;;;;;;9.95;6.37;;;;;;;1.09;71.12;102076.78;1600394;88;21098;-76
2022/10/20 04:38:30;;;;;;;8.05;6.40;;;;;;;1.06;71.12;102066.05;1598401;87;21132;-76
2022/10/20 04:41:15;;;;;;;8.83;6.37;;;;;;;1.05;71.13;102068.53;1596884;88;21077;-76
2022/10/20 04:44:00;;;;;;;11.08;6.83;;;;;;;1.04;71.15;102065.54;1597660;87;21117;-76
2022/10/20 04:46:45;;;;;;;14.23;8.05;;;;;;;1.02;71.12;102062.92;1599344;88;21073;-76
2022/10/20 04:49:30;;;;;;;12.20;7.55;;;;;;;0.98;71.13;102064.45;1625160;87;21089;-76
2022/10/20 04:52:16;;;;;;;62.53;21.60;;;;;;;0.97;71.23;102067.80;1622385;87;21361;-77
2022/10/20 04:55:01;;;;;;;25.37;13.20;;;;;;;0.92;71.15;102066.72;1619471;86;21077;-79
2022/10/20 04:57:46;;;;;;;15.80;8.78;;;;;;;0.93;71.22;102072.69;1620279;85;21109;-76
2022/10/20 05:00:31;;;;;;;10.10;7.33;;;;;;;0.95;71.27;102070.68;1600762;87;21617;-77
2022/10/20 05:03:18;;;;;;;11.63;7.28;;;;;;;0.92;71.18;102071.81;1626188;86;21114;-76
2022/10/20 05:06:15;;;;;;;;;;;;;;;0.90;71.20;102068.32;1625304;86;21497;-76
2022/10/20 05:09:03;;;;;;;15.18;7.67;;;;;;;0.89;71.29;102070.40;1623210;87;20225;-76
2022/10/20 05:11:49;;;;;;;14.58;8.18;;;;;;;0.89;71.23;102061.88;1623880;87;21154;-76
2022/10/20 05:14:34;;;;;;;22.58;8.33;;;;;;;0.85;71.16;102061.27;1621321;87;21025;-76
2022/10/20 05:17:19;;;;;;;13.95;7.12;;;;;;;0.83;71.28;102062.47;1625909;87;21129;-76
2022/10/20 05:20:05;;;;;;;14.43;7.43;;;;;;;0.83;71.24;102061.20;1623391;87;21085;-77
2022/10/20 05:22:51;;;;;;;12.43;6.80;;;;;;;0.80;71.28;102053.42;1618910;87;21118;-77
2022/10/20 05:25:37;;;;;;;16.97;8.10;;;;;;;0.81;71.33;102058.11;1619793;87;21239;-75
2022/10/20 05:28:21;;;;;;;30.20;13.97;;;;;;;0.80;71.29;102057.64;1620169;86;21341;-75
2022/10/20 05:31:08;;;;;;;20.48;10.65;;;;;;;0.80;71.32;102057.23;1598449;88;21659;-77
2022/10/20 05:33:55;;;;;;;19.10;11.57;;;;;;;0.82;71.34;102057.31;1621634;85;21570;-77
2022/10/20 05:36:40;;;;;;;28.98;10.28;;;;;;;0.82;71.36;102053.09;1625700;85;21001;-77
2022/10/20 05:39:25;;;;;;;29.80;12.10;;;;;;;0.79;71.24;102050.40;1625284;87;21042;-77
2022/10/20 05:42:10;;;;;;;34.67;11.40;;;;;;;0.72;71.32;102052.59;1629208;86;20990;-77
2022/10/20 05:44:55;;;;;;;22.07;11.35;;;;;;;0.75;71.40;102046.37;1624359;87;21373;-77
2022/10/20 05:47:41;;;;;;;23.05;9.38;;;;;;;0.80;71.46;102039.41;1588029;88;20969;-77
2022/10/20 05:50:26;;;;;;;17.75;8.10;;;;;;;0.86;71.44;102043.52;1629097;86;20965;-77
2022/10/20 05:53:11;;;;;;;30.40;10.75;;;;;;;0.93;71.51;102044.27;1629855;86;21389;-77
2022/10/20 05:56:06;;;;;;;23.07;9.58;;;;;;;1.01;71.48;102044.63;1630479;87;21801;-77
2022/10/20 05:58:51;;;;;;;23.92;9.60;;;;;;;1.04;71.37;102042.62;1626607;87;20950;-77
2022/10/20 06:01:48;;;;;;;21.12;10.35;;;;;;;1.02;71.37;102054.02;1631089;86;21621;-77
2022/10/20 06:04:33;;;;;;;24.05;10.38;;;;;;;1.01;71.44;102052.27;1625989;87;21467;-77
2022/10/20 06:07:18;;;;;;;23.20;11.35;;;;;;;1.02;71.45;102057.83;1631386;85;20957;-77
2022/10/20 06:10:04;;;;;;;24.18;11.85;;;;;;;1.08;71.49;102062.30;1626190;87;20962;-77
2022/10/20 06:12:49;;;;;;;34.13;15.58;;;;;;;1.08;71.49;102064.45;1626786;85;20950;-77
2022/10/20 06:15:34;;;;;;;34.60;15.45;;;;;;;1.10;71.50;102074.30;1627435;87;20979;-77
2022/10/20 06:18:19;;;;;;;30.43;15.83;;;;;;;1.14;71.55;102072.38;1624344;87;20998;-76
2022/10/20 06:21:12;;;;;;;26.55;14.05;;;;;;;1.22;71.66;102077.81;1608036;87;21621;-76
2022/10/20 06:23:59;;;;;;;31.90;15.53;;;;;;;1.35;71.70;102083.06;1628226;86;20954;-76
2022/10/20 06:26:43;;;;;;;;;;;;;;;1.46;71.69;102084.02;1633352;86;20994;-76
2022/10/20 06:29:28;;;;;;;45.63;21.52;;;;;;;1.51;71.70;102078.72;1616536;87;20169;-76
2022/10/20 06:32:16;;;;;;;50.92;24.15;;;;;;;1.61;71.80;102082.11;1626828;87;20954;-76
2022/10/20 06:34:59;;;;;;;52.08;23.35;;;;;;;1.96;72.05;102074.70;1627215;86;20998;-76
2022/10/20 06:37:44;;;;;;;52.00;23.35;;;;;;;2.49;72.12;102079.85;1624852;84;20985;-76
2022/10/20 06:40:29;;;;;;;49.45;28.12;;;;;;;2.79;71.85;102074.19;1623169;87;21102;-76
2022/10/20 06:43:14;;;;;;;74.90;42.10;;;;;;;2.86;71.64;102076.17;1624255;87;21526;-76
2022/10/20 06:46:03;;;;;;;67.92;38.80;;;;;;;2.88;71.81;102074.55;1624379;87;21421;-76
2022/10/20 06:48:47;;;;;;;66.50;36.68;;;;;;;2.93;71.86;102070.48;1628772;87;20982;-76
2022/10/20 06:51:34;;;;;;;54.03;29.40;;;;;;;2.97;71.86;102073.63;1628932;87;20950;-76
2022/10/20 06:54:19;;;;;;;;;;;;;;;3.00;71.90;102078.85;1632010;86;21513;-76
2022/10/20 06:57:03;;;;;;;45.65;23.22;;;;;;;3.07;71.97;102080.83;1621400;87;20502;-76
2022/10/20 06:59:48;;;;;;;49.25;24.27;;;;;;;3.21;72.06;102085.16;1619818;87;20966;-77
2022/10/20 07:02:33;;;;;;;42.17;21.30;;;;;;;3.31;72.03;102083.41;1624110;86;21381;-77
2022/10/20 07:05:18;;;;;;;46.90;18.25;;;;;;;3.35;72.02;102083.11;1628585;86;21895;-77
2022/10/20 07:08:03;;;;;;;41.37;17.00;;;;;;;3.38;72.11;102087.93;1630445;86;20986;-77
2022/10/20 07:11:05;;;;;;;38.10;14.68;;;;;;;3.42;72.17;102086.36;1629950;86;21902;-77
2022/10/20 07:13:50;;;;;;;29.30;11.68;;;;;;;3.47;72.22;102086.99;1630688;87;20966;-77
2022/10/20 07:16:35;;;;;;;18.97;10.80;;;;;;;3.62;72.32;102084.98;1626405;87;21522;-77
2022/10/20 07:19:19;;;;;;;21.02;9.55;;;;;;;3.73;72.31;102081.91;1627849;86;20983;-77
2022/10/20 07:22:05;;;;;;;23.05;10.13;;;;;;;3.82;72.40;102084.39;1629333;87;21445;-77
2022/10/20 07:24:50;;;;;;;25.97;11.68;;;;;;;4.00;72.45;102082.88;1606835;87;21820;-80
2022/10/20 07:27:35;;;;;;;27.50;11.90;;;;;;;4.13;72.43;102080.33;1628877;87;21157;-80
2022/10/20 07:30:20;;;;;;;19.40;10.38;;;;;;;4.24;72.47;102090.08;1623633;86;21088;-77
2022/10/20 07:33:07;;;;;;;24.75;10.63;;;;;;;4.48;72.68;102086.17;1627199;87;21129;-79
2022/10/20 07:35:52;;;;;;;28.83;10.53;;;;;;;4.84;72.81;102082.59;1602973;87;21641;-77
2022/10/20 07:38:37;;;;;;;27.93;12.23;;;;;;;5.35;72.84;102077.26;1634009;87;21128;-78
2022/10/20 07:41:22;;;;;;;33.10;14.75;;;;;;;5.79;72.82;102074.63;1635929;87;21136;-78
2022/10/20 07:44:07;;;;;;;39.98;14.20;;;;;;;6.07;72.71;102080.11;1637370;85;21096;-78
2022/10/20 07:46:52;;;;;;;30.75;15.38;;;;;;;6.30;72.71;102076.39;1632578;87;21109;-80
2022/10/20 07:49:38;;;;;;;41.95;16.65;;;;;;;6.44;72.66;102078.44;1633923;87;21093;-78
2022/10/20 07:52:23;;;;;;;42.15;16.17;;;;;;;6.59;72.81;102074.95;1637322;85;21149;-78
2022/10/20 07:55:08;;;;;;;39.92;14.35;;;;;;;6.72;72.76;102074.82;1636418;87;21101;-77
2022/10/20 07:57:53;;;;;;;41.60;14.18;;;;;;;6.75;72.79;102078.33;1635775;85;21675;-77
2022/10/20 08:00:38;;;;;;;34.63;13.03;;;;;;;6.76;72.86;102071.04;1634700;87;21133;-78
2022/10/20 08:03:23;;;;;;;30.77;13.20;;;;;;;6.72;72.87;102070.97;1603360;87;21097;-78
2022/10/20 08:06:08;;;;;;;26.17;11.60;;;;;;;6.69;73.01;102065.34;1636821;85;21604;-78
2022/10/20 08:08:53;;;;;;;24.80;9.73;;;;;;;6.72;73.07;102072.25;1638099;86;21666;-78
2022/10/20 08:11:38;;;;;;;18.23;8.43;;;;;;;6.75;73.09;102071.91;1638006;85;21152;-78
2022/10/20 08:14:30;;;;;;;15.83;7.70;;;;;;;6.78;73.11;102063.36;1639315;85;21978;-78
2022/10/20 08:17:14;;;;;;;11.85;6.55;;;;;;;6.81;73.14;102068.16;1639705;87;21089;-78
2022/10/20 08:19:59;;;;;;;12.28;6.33;;;;;;;6.84;73.14;102068.23;1639415;85;21025;-78
2022/10/20 08:22:44;;;;;;;17.37;7.42;;;;;;;6.86;73.17;102067.84;1640456;85;21129;-77
2022/10/20 08:25:29;;;;;;;8.30;5.53;;;;;;;6.89;73.23;102058.91;1636470;85;21077;-78
2022/10/20 08:28:14;;;;;;;9.25;5.50;;;;;;;6.93;73.23;102059.44;1632236;86;21373;-78
2022/10/20 08:31:05;;;;;;;11.28;5.10;;;;;;;7.00;73.30;102058.28;1636303;86;21093;-79
2022/10/20 08:33:51;;;;;;;10.08;7.28;;;;;;;7.05;73.28;102056.27;1632748;87;21610;-78
2022/10/20 08:36:36;;;;;;;11.33;6.80;;;;;;;7.10;73.32;102050.80;1631912;84;21200;-77
2022/10/20 08:39:21;;;;;;;7.10;4.42;;;;;;;7.17;73.38;102053.95;1624842;87;21568;-75
2022/10/20 08:42:07;;;;;;;9.40;4.12;;;;;;;7.22;73.38;102050.19;1627856;87;21177;-76
2022/10/20 08:44:57;;;;;;;5.62;4.12;;;;;;;7.31;73.46;102055.08;1628707;87;21074;-76
2022/10/20 08:47:45;;;;;;;7.37;4.03;;;;;;;7.42;73.55;102055.30;1629623;86;21520;-75
2022/10/20 08:50:31;;;;;;;11.90;3.55;;;;;;;7.52;73.52;102052.48;1614923;87;21408;-75
2022/10/20 08:53:19;;;;;;;4.62;3.50;;;;;;;7.61;73.57;102047.52;1628611;87;21145;-75
2022/10/20 08:56:06;;;;;;;5.30;3.72;;;;;;;7.67;73.54;102050.20;1621824;86;21072;-76
2022/10/20 08:58:51;;;;;;;5.80;3.30;;;;;;;7.75;73.58;102047.78;1625386;87;21081;-76
2022/10/20 09:01:37;;;;;;;6.10;3.80;;;;;;;7.84;73.64;102050.49;1625411;87;21715;-75
2022/10/20 09:04:33;;;;;;;4.30;3.62;;;;;;;7.91;73.62;102044.20;1628437;87;21010;-75
2022/10/20 09:07:24;;;;;;;;;;;;;;;7.98;73.66;102046.03;1628819;86;21092;-75
2022/10/20 09:10:26;;;;;;;5.62;2.72;;;;;;;8.06;73.76;102050.45;1627823;86;20239;-75
2022/10/20 09:13:20;;;;;;;6.42;3.00;;;;;;;8.12;73.65;102050.14;1619813;87;21129;-75
2022/10/20 09:16:16;;;;;;;4.00;2.40;;;;;;;8.19;73.68;102053.69;1624300;87;21093;-75
2022/10/20 09:19:01;;;;;;;;;;;;;;;8.26;73.65;102050.37;1631042;87;21517;-75
2022/10/20 09:21:55;;;;;;;6.08;2.90;;;;;;;8.29;73.71;102050.01;1625932;87;21258;-75
2022/10/20 09:24:42;;;;;;;8.33;3.02;;;;;;;8.36;73.71;102049.69;1633111;87;21084;-75
2022/10/20 09:27:38;;;;;;;5.92;3.17;;;;;;;8.43;73.70;102050.23;1635059;87;21089;-75
2022/10/20 09:30:32;;;;;;;4.62;3.05;;;;;;;8.49;73.71;102049.45;1605032;87;20954;-75
2022/10/20 09:33:31;;;;;;;2.98;2.42;;;;;;;8.54;73.72;102046.53;1625427;87;21070;-75
2022/10/20 09:36:18;;;;;;;2.92;1.70;;;;;;;8.59;73.64;102047.05;1629607;85;20970;-75
2022/10/20 09:39:04;;;;;;;3.92;2.10;;;;;;;8.65;73.68;102038.96;1612868;87;20998;-75
2022/10/20 09:41:53;;;;;;;3.47;2.20;;;;;;;8.69;73.66;102040.31;1631244;87;21416;-75
2022/10/20 09:44:55;;;;;;;3.67;2.52;;;;;;;8.75;73.65;102044.70;1629847;87;20935;-75
2022/10/20 09:47:43;;;;;;;3.25;1.87;;;;;;;8.79;73.64;102036.16;1621100;87;20957;-75
2022/10/20 09:50:36;;;;;;;3.45;2.20;;;;;;;8.83;73.63;102024.62;1628745;87;20991;-75
2022/10/20 09:53:34;;;;;;;2.77;1.72;;;;;;;8.89;73.67;102028.96;1627308;86;21039;-75
2022/10/20 09:56:26;;;;;;;4.97;2.10;;;;;;;8.94;73.58;102028.60;1614862;87;475755;-75
2022/10/20 09:59:28;;;;;;;3.67;2.70;;;;;;;8.99;73.55;102027.38;1595989;89;20995;-75
2022/10/20 10:02:21;;;;;;;2.85;1.90;;;;;;;9.02;73.54;102019.67;1604958;88;20954;-75
2022/10/20 10:05:18;;;;;;;3.02;1.90;;;;;;;9.07;73.62;102018.02;1575417;88;20986;-75
2022/10/20 10:08:02;;;;;;;2.90;1.87;;;;;;;9.11;73.58;102012.92;1590972;89;20986;-75
2022/10/20 10:11:01;;;;;;;4.10;1.98;;;;;;;9.15;73.55;102013.83;1596871;89;21051;-75
2022/10/20 10:13:50;;;;;;;7.62;1.75;;;;;;;9.19;73.54;102012.59;1601801;89;20987;-75
2022/10/20 10:16:42;;;;;;;2.45;1.32;;;;;;;9.24;73.51;102007.48;1590000;89;21455;-75
2022/10/20 10:19:31;;;;;;;3.40;1.67;;;;;;;9.28;73.46;102005.38;1594591;89;20978;-75
2022/10/20 10:22:16;;;;;;;2.80;1.45;;;;;;;9.32;73.33;102004.99;1597205;88;20966;-76
2022/10/20 10:25:02;;;;;;;2.83;1.80;;;;;;;9.36;73.37;102003.72;1489658;87;5001023;-76
2022/10/20 10:28:05;;;;;;;2.17;1.47;;;;;;;9.40;73.36;102000.75;1633138;85;20938;-75
2022/10/20 10:31:06;;;;;;;3.12;1.60;;;;;;;9.43;73.39;102002.08;1638810;85;20937;-75
2022/10/20 10:34:16;;;;;;;3.67;1.60;;;;;;;9.45;73.30;101993.92;1635978;87;20961;-75
2022/10/20 10:37:00;;;;;;;3.85;2.45;;;;;;;9.46;73.25;101990.48;1653788;84;20974;-76
2022/10/20 10:39:45;;;;;;;4.70;1.95;;;;;;;9.47;73.25;101990.51;1662107;84;20933;-76
2022/10/20 10:42:35;;;;;;;2.65;1.67;;;;;;;9.51;73.30;101988.83;1662647;84;20906;-76
2022/10/20 10:45:50;;;;;;;2.52;1.32;;;;;;;9.55;73.23;101990.16;1664008;84;21385;-76
2022/10/20 10:48:49;;;;;;;3.70;1.77;;;;;;;9.57;73.26;101978.13;1657501;84;21422;-75
2022/10/20 10:52:00;;;;;;;3.55;1.75;;;;;;;9.65;73.19;101975.63;1658571;84;21017;-75
2022/10/20 10:55:02;;;;;;;5.72;1.40;;;;;;;9.70;73.13;101972.66;1656865;83;20937;-75
2022/10/20 10:58:20;;;;;;;3.22;1.40;;;;;;;9.71;72.99;101964.06;1657433;86;20965;-75
2022/10/20 11:01:19;;;;;;;2.25;1.35;;;;;;;9.75;73.02;101952.05;1655735;84;20913;-75
2022/10/20 11:04:40;;;;;;;4.05;1.40;;;;;;;9.78;72.97;101949.06;1658494;84;20938;-75
2022/10/20 11:07:54;;;;;;;2.85;1.25;;;;;;;9.77;72.92;101953.79;1639727;84;21560;-75
2022/10/20 11:11:19;;;;;;;5.62;1.62;;;;;;;9.79;72.87;101948.21;1659364;84;21801;-75
2022/10/20 11:14:24;;;;;;;2.35;1.25;;;;;;;9.83;72.89;101938.77;1655252;84;21450;-75
2022/10/20 11:17:34;;;;;;;2.05;1.50;;;;;;;9.86;72.86;101933.62;1666159;84;37147;-75
2022/10/20 11:20:38;;;;;;;2.20;1.10;;;;;;;9.87;72.76;101929.77;1660093;84;21528;-76
2022/10/20 11:23:47;;;;;;;3.02;1.25;;;;;;;9.88;72.69;101926.30;1662226;84;20925;-75
2022/10/20 11:26:39;;;;;;;3.25;1.40;;;;;;;9.90;72.67;101919.42;1656703;84;21339;-74
2022/10/20 11:29:47;;;;;;;1.47;0.95;;;;;;;9.94;72.54;101917.73;1657128;84;21548;-74
2022/10/20 11:32:52;;;;;;;1.92;1.22;;;;;;;9.99;72.57;101908.30;1662054;84;20961;-74
2022/10/20 11:36:00;;;;;;;1.72;0.98;;;;;;;10.03;72.54;101906.17;1602504;87;20997;-75
2022/10/20 11:38:51;;;;;;;2.05;1.15;;;;;;;10.05;72.47;101893.26;1634604;87;21448;-75
2022/10/20 11:41:49;;;;;;;2.42;0.78;;;;;;;10.06;72.49;101889.39;1637645;85;21636;-75
2022/10/20 11:44:43;;;;;;;2.70;1.10;;;;;;;10.05;72.40;101879.91;1637902;85;20920;-75
2022/10/20 11:47:38;;;;;;;2.60;1.15;;;;;;;10.05;72.39;101877.33;1615977;87;20994;-75
2022/10/20 11:50:23;;;;;;;2.87;1.20;;;;;;;10.06;72.29;101875.17;1636187;85;21346;-75
2022/10/20 11:53:33;;;;;;;3.20;1.30;;;;;;;10.08;72.27;101881.65;1636717;86;20931;-75
2022/10/20 11:56:41;;;;;;;1.82;1.07;;;;;;;10.09;72.24;101878.21;1639219;85;20983;-75
2022/10/20 11:59:39;;;;;;;2.35;1.32;;;;;;;10.10;72.25;101867.88;1640042;86;21591;-75
2022/10/20 12:02:47;;;;;;;1.32;1.00;;;;;;;10.15;72.12;101858.86;1637732;87;20952;-75
2022/10/20 12:05:40;;;;;;;1.60;0.85;;;;;;;10.19;72.01;101855.44;1621899;85;20930;-75
2022/10/20 12:08:45;;;;;;;2.80;1.30;;;;;;;10.23;71.96;101850.33;1638681;87;20953;-75
2022/10/20 12:11:49;;;;;;;2.20;1.00;;;;;;;10.28;71.86;101854.23;1629157;87;20968;-75
2022/10/20 12:14:51;;;;;;;3.50;1.10;;;;;;;10.31;71.87;101847.78;1668639;82;20964;-75
2022/10/20 12:17:42;;;;;;;2.15;0.82;;;;;;;10.31;71.64;101843.05;1673066;84;20965;-75
2022/10/20 12:20:38;;;;;;;2.02;1.00;;;;;;;10.29;71.55;101841.75;1663095;84;20961;-75
2022/10/20 12:23:50;;;;;;;2.55;1.00;;;;;;;10.29;71.63;101843.03;1676946;84;21782;-75
2022/10/20 12:26:38;;;;;;;3.72;1.30;;;;;;;10.30;71.51;101843.91;1639294;85;21507;-74
2022/10/20 12:29:33;;;;;;;2.77;1.07;;;;;;;10.30;71.52;101843.47;1672735;84;21252;-76
2022/10/20 12:32:39;;;;;;;2.65;1.20;;;;;;;10.28;71.46;101840.88;1667887;85;20969;-76
2022/10/20 12:35:27;;;;;;;2.67;0.80;;;;;;;10.28;71.40;101837.43;1677662;84;21430;-76
2022/10/20 12:38:16;;;;;;;1.90;0.98;;;;;;;10.31;71.33;101839.16;1659662;84;20978;-76
2022/10/20 12:41:01;;;;;;;1.22;0.90;;;;;;;10.30;71.22;101836.14;1653519;84;21504;-76
2022/10/20 12:43:51;;;;;;;1.67;1.00;;;;;;;10.26;71.17;101837.42;1658651;84;20957;-76
2022/10/20 12:46:41;;;;;;;1.98;0.93;;;;;;;10.27;71.12;101828.81;1661606;84;21406;-75
2022/10/20 12:49:31;;;;;;;0.93;0.82;;;;;;;10.27;71.10;101821.48;1661306;84;20958;-75
2022/10/20 12:52:23;;;;;;;1.95;1.00;;;;;;;10.33;71.06;101820.65;1659404;84;20957;-75
2022/10/20 12:55:25;;;;;;;1.95;1.12;;;;;;;10.32;70.96;101816.33;1660512;84;20929;-75
2022/10/20 12:58:22;;;;;;;2.65;1.12;;;;;;;10.28;70.99;101808.56;1651658;84;21446;-75
2022/10/20 13:01:10;;;;;;;1.52;0.93;;;;;;;10.27;70.89;101787.45;1661567;84;21528;-77
2022/10/20 13:03:55;;;;;;;2.00;1.00;;;;;;;10.31;70.82;101787.03;1658920;86;20952;-75
2022/10/20 13:06:40;;;;;;;2.25;1.25;;;;;;;10.34;70.75;101787.47;1659923;84;20921;-75
2022/10/20 13:09:25;;;;;;;3.02;1.32;;;;;;;10.33;70.70;101788.33;1654935;84;20937;-75
2022/10/20 13:12:29;;;;;;;2.98;1.40;;;;;;;10.35;70.65;101782.73;1659102;84;20949;-75
2022/10/20 13:15:17;;;;;;;1.20;0.85;;;;;;;10.37;70.50;101787.48;1645461;85;20933;-75